| time (UTC) | temp F | wind direction | speed knots | gust knots | rain 1hr in | rain 24hr in | rain mn in | humidity % | barometer mb |
| 20260504001346 | 79 | 294 | 0.0 | 1.7 | 0.00 | 0.00 | 0.00 | 41 | 1008.7 |
| 20260504000346 | 79 | 301 | 0.9 | 2.6 | 0.00 | 0.00 | 0.00 | 39 | 1008.7 |
| 20260503234344 | 80 | 292 | 0.9 | 1.7 | 0.00 | 0.00 | 0.00 | 38 | 1008.9 |
| 20260503233344 | 79 | 299 | 0.9 | 3.5 | 0.00 | 0.00 | 0.00 | 37 | 1009.0 |
| 20260503232344 | 81 | 142 | 0.0 | 1.7 | 0.00 | 0.00 | 0.00 | 37 | 1009.0 |
| 20260503231344 | 80 | 300 | 0.0 | 1.7 | 0.00 | 0.00 | 0.00 | 37 | 1009.2 |
| 20260503230342 | 80 | 145 | 0.9 | 3.5 | 0.00 | 0.00 | 0.00 | 37 | 1009.3 |
| 20260503225342 | 79 | 296 | 0.9 | 3.5 | 0.00 | 0.00 | 0.00 | 36 | 1009.5 |
| 20260503224340 | 79 | 306 | 0.9 | 3.5 | 0.00 | 0.00 | 0.00 | 38 | 1009.6 |
| 20260503223340 | 78 | 313 | 0.0 | 1.7 | 0.00 | 0.00 | 0.00 | 37 | 1009.8 |
| 20260503222337 | 78 | 309 | 0.9 | 3.5 | 0.00 | 0.00 | 0.00 | 40 | 1010.0 |
| 20260503221337 | 77 | 311 | 0.9 | 3.5 | 0.00 | 0.00 | 0.00 | 41 | 1010.1 |
| 20260503220338 | 78 | 306 | 0.0 | 3.5 | 0.00 | 0.00 | 0.00 | 41 | 1010.3 |
| 20260503215338 | 78 | 313 | 0.9 | 3.5 | 0.00 | 0.00 | 0.00 | 41 | 1010.4 |
| 20260503214337 | 78 | 281 | 0.9 | 3.5 | 0.00 | 0.00 | 0.00 | 43 | 1010.5 |
| 20260503213338 | 77 | 306 | 0.9 | 4.3 | 0.00 | 0.00 | 0.00 | 43 | 1010.6 |
| 20260503212338 | 77 | 311 | 0.9 | 4.3 | 0.00 | 0.00 | 0.00 | 41 | 1010.6 |
| 20260503211339 | 77 | 314 | 0.0 | 4.3 | 0.00 | 0.00 | 0.00 | 46 | 1010.7 |
| 20260503210338 | 76 | 301 | 0.0 | 1.7 | 0.00 | 0.00 | 0.00 | 47 | 1010.8 |
| 20260503205338 | 76 | 303 | 0.0 | 4.3 | 0.00 | 0.00 | 0.00 | 46 | 1010.8 |
| 20260503204335 | 75 | 286 | 0.9 | 4.3 | 0.00 | 0.00 | 0.00 | 44 | 1010.9 |
| 20260503202335 | 76 | 294 | 0.9 | 3.5 | 0.00 | 0.00 | 0.00 | 42 | 1010.9 |
| 20260503201335 | 75 | 304 | 0.9 | 4.3 | 0.00 | 0.00 | 0.00 | 43 | 1011.0 |
| 20260503195336 | 73 | 327 | 0.9 | 4.3 | 0.00 | 0.00 | 0.00 | 45 | 1011.3 |
| 20260503194333 | 73 | 314 | 0.9 | 3.5 | 0.00 | 0.00 | 0.00 | 48 | 1011.5 |
| 20260503193331 | 73 | 253 | 0.0 | 3.5 | 0.00 | 0.00 | 0.00 | 49 | 1011.6 |
| 20260503190331 | 72 | 304 | 0.9 | 4.3 | 0.00 | 0.00 | 0.00 | 48 | 1011.8 |
| 20260503184332 | 71 | 292 | 0.9 | 4.3 | 0.00 | 0.00 | 0.00 | 50 | 1012.1 |
| 20260503183331 | 71 | 307 | 0.9 | 4.3 | 0.00 | 0.00 | 0.00 | 49 | 1012.2 |
| 20260503182331 | 71 | 295 | 0.9 | 3.5 | 0.00 | 0.00 | 0.00 | 49 | 1012.3 |
| 20260503175330 | 69 | 332 | 0.0 | 3.5 | 0.00 | 0.00 | 0.00 | 55 | 1012.6 |
| 20260503174331 | 69 | 273 | 0.0 | 3.5 | 0.00 | 0.00 | 0.00 | 55 | 1012.6 |
| 20260503173331 | 68 | 311 | 0.0 | 1.7 | 0.00 | 0.00 | 0.00 | 56 | 1012.7 |
| 20260503172333 | 67 | 304 | 0.0 | 1.7 | 0.00 | 0.00 | 0.00 | 57 | 1012.7 |
| 20260503170331 | 65 | 307 | 0.0 | 1.7 | 0.00 | 0.00 | 0.00 | 59 | 1012.8 |
| 20260503150331 | 67 | 303 | 0.9 | 4.3 | 0.00 | 0.00 | 0.00 | 57 | 1013.2 |
| 20260503131343 | 62 | 271 | 0.9 | 4.3 | 0.00 | 0.00 | 0.00 | 57 | 1012.7 |
| 20260503130330 | 60 | 17 | 0.0 | 3.5 | 0.00 | 0.00 | 0.00 | 60 | 1012.7 |
| 20260503110330 | 56 | 333 | 0.0 | 0.0 | 0.00 | 0.00 | 0.00 | 66 | 1012.8 |
| 20260503090323 | 59 | 307 | 0.0 | 1.7 | 0.00 | 0.00 | 0.00 | 61 | 1012.5 |
| 20260503081323 | 59 | 261 | 0.9 | 6.1 | 0.00 | 0.00 | 0.00 | 63 | 1012.5 |
| 20260503080324 | 59 | 331 | 0.0 | 1.7 | 0.00 | 0.00 | 0.00 | 63 | 1012.4 |
| 20260503072322 | 60 | 276 | 0.0 | 3.5 | 0.00 | 0.00 | 0.00 | 61 | 1012.3 |
| 20260503071321 | 59 | 241 | 0.0 | 1.7 | 0.00 | 0.00 | 0.00 | 61 | 1012.3 |
| 20260503070322 | 59 | 262 | 0.0 | 0.9 | 0.00 | 0.00 | 0.00 | 61 | 1012.3 |
| 20260503060319 | 60 | 199 | 0.0 | 0.0 | 0.00 | 0.00 | 0.00 | 61 | 1012.3 |
| 20260503054320 | 61 | 199 | 0.0 | 0.9 | 0.00 | 0.00 | 0.00 | 60 | 1012.2 |
| 20260503053321 | 61 | 199 | 0.0 | 1.7 | 0.00 | 0.00 | 0.00 | 59 | 1012.3 |
| 20260503052319 | 61 | 200 | 0.0 | 0.9 | 0.00 | 0.00 | 0.00 | 59 | 1012.4 |
| 20260503051321 | 62 | 200 | 0.0 | 0.9 | 0.00 | 0.00 | 0.00 | 57 | 1012.3 |
| 20260503050319 | 63 | 348 | 0.0 | 0.0 | 0.00 | 0.00 | 0.00 | 57 | 1012.3 |
| 20260503044319 | 65 | 347 | 0.0 | 0.0 | 0.00 | 0.00 | 0.00 | 54 | 1012.3 |
| 20260503042321 | 66 | 161 | 0.0 | 0.9 | 0.00 | 0.00 | 0.00 | 49 | 1012.1 |
| 20260503041320 | 65 | 241 | 0.0 | 0.9 | 0.00 | 0.00 | 0.00 | 49 | 1012.0 |
| 20260503040316 | 65 | 140 | 0.0 | 0.0 | 0.00 | 0.00 | 0.00 | 52 | 1012.0 |
| 20260503035317 | 65 | 323 | 0.0 | 0.0 | 0.00 | 0.00 | 0.00 | 55 | 1011.8 |
| 20260503034316 | 66 | 323 | 0.0 | 0.0 | 0.00 | 0.00 | 0.00 | 55 | 1011.8 |
| 20260503033316 | 67 | 323 | 0.0 | 0.0 | 0.00 | 0.00 | 0.00 | 53 | 1011.7 |
| 20260503032312 | 68 | 323 | 0.0 | 0.0 | 0.00 | 0.00 | 0.00 | 52 | 1011.7 |
| 20260503031313 | 69 | 323 | 0.0 | 0.0 | 0.00 | 0.00 | 0.00 | 51 | 1011.6 |
| 20260503025313 | 71 | 323 | 0.0 | 0.0 | 0.00 | 0.00 | 0.00 | 47 | 1011.5 |
| 20260503023313 | 74 | 323 | 0.0 | 0.0 | 0.00 | 0.00 | 0.00 | 41 | 1011.5 |
| 20260503022313 | 75 | 323 | 0.0 | 1.7 | 0.00 | 0.00 | 0.00 | 41 | 1011.5 |
| 20260503021326 | 77 | 323 | 0.0 | 1.7 | 0.00 | 0.00 | 0.00 | 40 | 1011.6 |
| 20260503020312 | 78 | 330 | 0.0 | 0.9 | 0.00 | 0.00 | 0.00 | 35 | 1011.7 |
| 20260503015314 | 78 | 275 | 0.0 | 1.7 | 0.00 | 0.00 | 0.00 | 37 | 1011.8 |
| 20260503014315 | 78 | 288 | 0.0 | 3.5 | 0.00 | 0.00 | 0.00 | 35 | 1011.8 |
| 20260503013317 | 78 | 313 | 0.0 | 1.7 | 0.00 | 0.00 | 0.00 | 39 | 1011.9 |
| 20260503012310 | 77 | 298 | 0.9 | 3.5 | 0.00 | 0.00 | 0.00 | 34 | 1012.0 |
| 20260503011312 | 78 | 311 | 0.9 | 5.2 | 0.00 | 0.00 | 0.00 | 35 | 1012.1 |
| 20260503005310 | 78 | 313 | 0.9 | 3.5 | 0.00 | 0.00 | 0.00 | 39 | 1012.1 |
| 20260503004309 | 78 | 296 | 0.9 | 3.5 | 0.00 | 0.00 | 0.00 | 37 | 1012.1 |
| 20260503003309 | 78 | 306 | 0.9 | 3.5 | 0.00 | 0.00 | 0.00 | 38 | 1012.1 |
| 20260503002308 | 78 | 306 | 1.7 | 3.5 | 0.00 | 0.00 | 0.00 | 38 | 1012.2 |